Time;durP1;ratioP1;P1;durP2;ratioP2;P2;SDS_P1;SDS_P2;PMS_P1;PMS_P2;Temp;Humidity;BMP_temperature;BMP_pressure;BME280_temperature;BME280_humidity;BME280_pressure;Samples;Min_cycle;Max_cycle;Signal;HPM_P1;HPM_P2
2023/09/22 00:00:23;;;;;;;3.40;1.43;;;16.00;99.90;;;;;;4954260;29;20471;-66
2023/09/22 00:02:50;;;;;;;2.13;1.20;;;16.00;99.90;;;;;;4967964;28;20581;-66
2023/09/22 00:05:17;;;;;;;1.90;1.30;;;16.00;99.90;;;;;;4972800;28;20450;-66
2023/09/22 00:07:45;;;;;;;2.93;1.20;;;16.00;99.90;;;;;;4973365;28;20450;-66
2023/09/22 00:10:12;;;;;;;1.30;1.20;;;16.00;99.90;;;;;;4973006;28;20473;-67
2023/09/22 00:12:40;;;;;;;2.00;1.60;;;16.00;99.90;;;;;;4972754;28;20458;-66
2023/09/22 00:15:08;;;;;;;1.43;1.33;;;16.10;99.90;;;;;;4973103;28;20452;-66
2023/09/22 00:17:36;;;;;;;1.50;1.40;;;16.10;99.90;;;;;;4973239;28;20453;-66
2023/09/22 00:20:03;;;;;;;1.83;1.73;;;16.10;99.90;;;;;;4972940;28;20473;-66
2023/09/22 00:22:30;;;;;;;1.63;1.17;;;16.10;99.90;;;;;;4972578;28;20482;-67
2023/09/22 00:24:57;;;;;;;1.80;1.70;;;16.10;99.90;;;;;;4972722;28;20449;-66
2023/09/22 00:27:23;;;;;;;1.33;1.20;;;16.10;99.90;;;;;;4973081;28;20452;-66
2023/09/22 00:29:52;;;;;;;2.33;1.50;;;16.10;99.90;;;;;;4972435;28;20548;-66
2023/09/22 00:32:18;;;;;;;1.43;1.33;;;16.10;99.90;;;;;;4972718;28;20441;-67
2023/09/22 00:34:45;;;;;;;1.73;1.40;;;16.10;99.90;;;;;;4972390;28;20461;-66
2023/09/22 00:37:12;;;;;;;3.07;1.20;;;16.10;99.90;;;;;;4971963;28;20457;-67
2023/09/22 00:39:39;;;;;;;1.83;1.40;;;16.10;99.90;;;;;;4969289;28;20461;-67
2023/09/22 00:42:09;;;;;;;1.50;1.40;;;16.10;99.90;;;;;;4972381;28;20485;-67
2023/09/22 00:44:36;;;;;;;2.90;1.50;;;16.20;99.90;;;;;;4972490;28;20447;-67
2023/09/22 00:47:06;;;;;;;2.20;1.40;;;16.20;99.90;;;;;;4972770;28;20456;-67
2023/09/22 00:49:33;;;;;;;1.40;1.30;;;16.20;99.90;;;;;;4972433;28;20939;-66
2023/09/22 00:52:00;;;;;;;1.40;1.30;;;16.20;99.90;;;;;;4972363;28;20525;-67
2023/09/22 00:54:27;;;;;;;1.73;1.60;;;16.10;99.90;;;;;;4953251;29;20451;-67
2023/09/22 00:56:54;;;;;;;1.83;1.50;;;16.20;99.90;;;;;;4953291;29;20975;-67
2023/09/22 00:59:22;;;;;;;2.53;1.60;;;16.20;99.90;;;;;;4953410;29;20455;-67
2023/09/22 01:01:49;;;;;;;2.60;1.73;;;16.20;99.90;;;;;;4953029;29;21047;-67
2023/09/22 01:04:19;;;;;;;2.83;1.80;;;16.20;99.90;;;;;;4952976;29;20538;-67
2023/09/22 01:06:46;;;;;;;3.07;2.20;;;16.10;99.90;;;;;;4952923;29;20450;-67
2023/09/22 01:09:14;;;;;;;1.67;1.57;;;16.10;99.90;;;;;;4953199;29;20496;-67
2023/09/22 01:11:41;;;;;;;2.93;2.33;;;16.10;99.90;;;;;;4953235;29;20857;-67
2023/09/22 01:14:08;;;;;;;2.20;2.03;;;16.20;99.90;;;;;;4966009;28;20451;-67
2023/09/22 01:16:35;;;;;;;3.00;2.40;;;16.10;99.90;;;;;;4972259;28;20536;-66
2023/09/22 01:19:01;;;;;;;2.60;2.40;;;16.10;99.90;;;;;;4972263;28;20485;-67
2023/09/22 01:21:31;;;;;;;2.50;2.30;;;16.10;99.90;;;;;;4972085;28;20556;-66
2023/09/22 01:23:59;;;;;;;3.00;2.80;;;16.10;99.90;;;;;;4972147;28;20455;-67
2023/09/22 01:26:26;;;;;;;3.70;2.20;;;16.10;99.90;;;;;;4972394;28;20458;-67
2023/09/22 01:28:53;;;;;;;2.47;2.27;;;16.10;99.90;;;;;;4972345;28;20901;-67
2023/09/22 01:31:20;;;;;;;2.30;2.10;;;16.10;99.90;;;;;;4972222;28;20500;-68
2023/09/22 01:33:47;;;;;;;2.60;2.40;;;16.10;99.90;;;;;;4971805;28;20540;-67
2023/09/22 01:36:14;;;;;;;2.33;2.13;;;16.10;99.90;;;;;;4972401;28;20842;-68
2023/09/22 01:38:42;;;;;;;4.03;2.27;;;16.10;99.90;;;;;;4972293;28;20453;-67
2023/09/22 01:41:11;;;;;;;2.20;2.10;;;16.10;99.90;;;;;;4972270;28;20521;-68
2023/09/22 01:43:38;;;;;;;2.27;2.07;;;16.10;99.90;;;;;;4971738;28;21054;-68
2023/09/22 01:46:05;;;;;;;2.37;2.10;;;16.10;99.90;;;;;;4971678;28;20460;-67
2023/09/22 01:48:32;;;;;;;2.50;2.20;;;16.10;99.90;;;;;;4973383;28;20540;-68
2023/09/22 01:51:01;;;;;;;2.20;2.00;;;16.10;99.90;;;;;;4975553;28;20485;-67
2023/09/22 01:53:28;;;;;;;2.10;2.00;;;16.10;99.90;;;;;;4975546;28;20791;-68
2023/09/22 01:55:56;;;;;;;1.87;1.70;;;16.00;99.90;;;;;;4975715;28;20824;-67
2023/09/22 01:58:23;;;;;;;2.50;2.30;;;16.00;99.90;;;;;;4975620;28;20450;-67
2023/09/22 02:00:50;;;;;;;3.00;2.10;;;16.00;99.90;;;;;;4975347;28;20465;-67
2023/09/22 02:03:18;;;;;;;2.13;1.87;;;16.00;99.90;;;;;;4974798;28;20493;-67
2023/09/22 02:05:45;;;;;;;3.83;1.87;;;16.00;99.90;;;;;;4975273;28;20453;-68
2023/09/22 02:08:11;;;;;;;3.47;1.90;;;15.90;99.90;;;;;;4975531;28;20461;-67
2023/09/22 02:10:38;;;;;;;1.80;1.60;;;15.90;99.90;;;;;;4975412;28;20527;-68
2023/09/22 02:13:08;;;;;;;2.10;1.50;;;15.90;99.90;;;;;;4975105;28;20448;-67
2023/09/22 02:15:36;;;;;;;1.70;1.60;;;15.90;99.90;;;;;;4975774;28;20900;-67
2023/09/22 02:18:04;;;;;;;1.93;1.70;;;15.80;99.90;;;;;;4975213;28;20446;-66
2023/09/22 02:20:31;;;;;;;2.13;1.37;;;15.80;99.90;;;;;;4974835;28;20526;-67
2023/09/22 02:22:59;;;;;;;2.67;1.40;;;15.70;99.90;;;;;;4974829;28;20484;-67
2023/09/22 02:25:26;;;;;;;2.40;1.30;;;15.70;99.90;;;;;;4975036;28;20447;-67
2023/09/22 02:27:55;;;;;;;2.50;1.63;;;15.70;99.90;;;;;;4975009;28;20449;-67
2023/09/22 02:30:23;;;;;;;3.30;1.50;;;15.70;99.90;;;;;;4975161;28;20888;-67
2023/09/22 02:32:50;;;;;;;2.17;1.60;;;15.70;99.90;;;;;;4974798;28;20449;-67
2023/09/22 02:35:17;;;;;;;1.60;1.50;;;15.60;99.90;;;;;;4974899;28;20941;-66
2023/09/22 02:37:44;;;;;;;1.80;1.70;;;15.60;99.90;;;;;;4974977;28;20452;-67
2023/09/22 02:40:13;;;;;;;1.80;1.70;;;15.60;99.90;;;;;;4974868;28;20559;-66
2023/09/22 02:42:40;;;;;;;1.60;1.50;;;15.60;99.90;;;;;;4974321;28;20569;-67
2023/09/22 02:45:10;;;;;;;1.67;1.20;;;15.60;99.90;;;;;;4975048;28;20533;-67
2023/09/22 02:47:38;;;;;;;1.80;1.70;;;15.60;99.90;;;;;;4975014;28;20975;-66
2023/09/22 02:50:10;;;;;;;2.07;1.80;;;15.60;99.90;;;;;;4974588;28;20574;-66
2023/09/22 02:52:38;;;;;;;1.57;1.47;;;15.50;99.90;;;;;;5011281;22;20592;-65
2023/09/22 02:55:07;;;;;;;1.70;1.23;;;15.50;99.90;;;;;;4994026;28;20486;-64
2023/09/22 02:57:34;;;;;;;2.20;1.60;;;15.50;99.90;;;;;;4993933;28;20509;-64
2023/09/22 03:00:02;;;;;;;1.50;1.40;;;15.40;99.90;;;;;;4993363;28;20529;-64
2023/09/22 03:02:28;;;;;;;1.27;1.27;;;15.40;99.90;;;;;;4993628;28;20946;-64
2023/09/22 03:04:57;;;;;;;1.37;1.00;;;15.40;99.90;;;;;;4993776;28;20456;-64
2023/09/22 03:07:23;;;;;;;1.60;1.50;;;15.40;99.90;;;;;;4993700;28;20968;-64
2023/09/22 03:09:50;;;;;;;1.73;1.60;;;15.30;99.90;;;;;;4993627;28;20456;-64
2023/09/22 03:12:18;;;;;;;1.57;1.30;;;15.30;99.90;;;;;;4993405;28;20494;-64
2023/09/22 03:14:48;;;;;;;1.40;1.30;;;15.30;99.90;;;;;;4992095;28;20455;-64
2023/09/22 03:17:15;;;;;;;2.90;1.53;;;15.30;99.90;;;;;;4993546;28;20490;-64
2023/09/22 03:19:42;;;;;;;2.80;2.43;;;15.30;99.90;;;;;;4993473;28;20454;-64
2023/09/22 03:22:10;;;;;;;1.80;1.67;;;15.30;99.90;;;;;;4993458;28;20474;-64
2023/09/22 03:24:37;;;;;;;2.20;1.90;;;15.30;99.90;;;;;;4993194;28;20448;-64
2023/09/22 03:27:04;;;;;;;1.40;1.30;;;15.20;99.90;;;;;;4993586;28;20452;-65
2023/09/22 03:29:31;;;;;;;2.10;1.83;;;15.20;99.90;;;;;;4993291;28;20446;-65
2023/09/22 03:31:58;;;;;;;4.73;2.00;;;15.20;99.90;;;;;;4993275;28;20838;-64
2023/09/22 03:34:24;;;;;;;2.30;1.60;;;15.20;99.90;;;;;;4993039;28;20455;-65
2023/09/22 03:36:52;;;;;;;3.40;1.70;;;15.20;99.90;;;;;;4993222;28;20827;-64
2023/09/22 03:39:22;;;;;;;1.40;1.40;;;15.20;99.90;;;;;;4993148;28;20453;-65
2023/09/22 03:41:52;;;;;;;2.73;2.07;;;15.20;99.90;;;;;;4993245;28;20475;-64
2023/09/22 03:44:19;;;;;;;1.70;1.60;;;15.20;99.90;;;;;;4992791;28;20486;-65
2023/09/22 03:46:46;;;;;;;4.10;1.67;;;15.20;99.90;;;;;;4993126;28;20457;-64
2023/09/22 03:49:13;;;;;;;1.77;1.67;;;15.20;99.90;;;;;;4993025;28;20449;-64
2023/09/22 03:51:40;;;;;;;2.90;2.70;;;15.10;99.90;;;;;;4992699;28;20489;-64
2023/09/22 03:54:07;;;;;;;2.37;1.90;;;15.10;99.90;;;;;;4992576;28;20447;-65
2023/09/22 03:56:37;;;;;;;1.97;1.40;;;15.10;99.90;;;;;;4993069;28;20507;-64
2023/09/22 03:59:04;;;;;;;1.63;1.53;;;15.10;99.90;;;;;;4992840;28;20464;-64
2023/09/22 04:01:31;;;;;;;1.50;1.40;;;15.10;99.90;;;;;;4992860;28;20553;-64
2023/09/22 04:03:58;;;;;;;2.27;1.53;;;15.10;99.90;;;;;;4992430;28;21095;-64
2023/09/22 04:06:25;;;;;;;2.03;1.83;;;15.10;99.90;;;;;;4992644;28;20445;-64
2023/09/22 04:08:52;;;;;;;2.87;1.77;;;15.10;99.90;;;;;;4992582;28;20447;-64
2023/09/22 04:11:19;;;;;;;1.83;1.47;;;15.10;99.90;;;;;;4991913;28;20472;-65
2023/09/22 04:13:47;;;;;;;2.03;1.73;;;15.10;99.90;;;;;;4992401;28;20895;-64
2023/09/22 04:16:14;;;;;;;3.87;1.67;;;15.00;99.90;;;;;;4992572;28;20477;-64
2023/09/22 04:18:41;;;;;;;2.70;1.33;;;15.00;99.90;;;;;;4992321;28;20472;-65
2023/09/22 04:21:09;;;;;;;3.37;1.40;;;15.00;99.90;;;;;;4992275;28;20564;-64
2023/09/22 04:23:35;;;;;;;1.90;1.50;;;15.00;99.90;;;;;;4991856;28;20536;-65
2023/09/22 04:26:09;;;;;;;1.37;1.20;;;15.00;99.90;;;;;;4992505;28;20444;-64
2023/09/22 04:28:36;;;;;;;1.90;1.60;;;15.00;99.90;;;;;;4992399;28;20482;-64
2023/09/22 04:31:04;;;;;;;1.73;1.60;;;14.90;99.90;;;;;;4992126;28;21158;-64
2023/09/22 04:33:32;;;;;;;2.33;1.60;;;14.90;99.90;;;;;;4992077;28;20539;-65
2023/09/22 04:35:59;;;;;;;1.67;1.57;;;14.90;99.90;;;;;;4992348;28;20532;-64
2023/09/22 04:38:26;;;;;;;2.00;1.80;;;14.90;99.90;;;;;;4992254;28;20535;-65
2023/09/22 04:40:57;;;;;;;2.03;1.50;;;14.90;99.90;;;;;;4992132;28;20456;-65
2023/09/22 04:43:25;;;;;;;1.83;1.60;;;14.90;99.90;;;;;;4991842;28;20485;-64
2023/09/22 04:45:51;;;;;;;2.03;1.50;;;14.90;99.90;;;;;;4991998;28;20508;-65
2023/09/22 04:48:20;;;;;;;1.80;1.70;;;14.90;99.90;;;;;;4991970;28;20452;-64
2023/09/22 04:50:54;;;;;;;3.03;1.70;;;14.90;99.90;;;;;;4991982;28;21054;-64
2023/09/22 04:53:21;;;;;;;1.90;1.70;;;14.90;99.90;;;;;;4991805;28;20452;-64
2023/09/22 04:55:48;;;;;;;1.50;1.37;;;14.90;99.90;;;;;;4992008;28;20538;-64
2023/09/22 04:58:16;;;;;;;1.80;1.70;;;14.90;99.90;;;;;;4991812;28;20880;-65
2023/09/22 05:00:43;;;;;;;2.33;1.70;;;14.90;99.90;;;;;;4992023;28;20455;-64
2023/09/22 05:03:10;;;;;;;1.80;1.30;;;14.90;99.90;;;;;;4991450;28;20578;-64
2023/09/22 05:05:38;;;;;;;1.60;1.43;;;14.90;99.90;;;;;;4992001;28;20830;-64
2023/09/22 05:08:06;;;;;;;2.80;1.33;;;15.00;99.90;;;;;;4991745;28;20459;-64
2023/09/22 05:10:33;;;;;;;3.17;1.97;;;14.90;99.90;;;;;;4991770;28;20813;-64
2023/09/22 05:13:00;;;;;;;3.73;1.73;;;14.90;99.90;;;;;;4991249;28;20558;-65
2023/09/22 05:15:27;;;;;;;1.77;1.40;;;14.90;99.90;;;;;;4991938;28;20445;-65
2023/09/22 05:17:55;;;;;;;2.93;1.90;;;14.90;99.90;;;;;;4991824;28;20458;-64
2023/09/22 05:20:21;;;;;;;2.60;2.00;;;14.90;99.90;;;;;;4991614;28;20457;-64
2023/09/22 05:22:50;;;;;;;2.10;1.90;;;14.80;99.90;;;;;;4992489;28;20476;-65
2023/09/22 05:25:17;;;;;;;3.93;2.10;;;14.80;99.90;;;;;;4995510;28;20463;-65
2023/09/22 05:27:45;;;;;;;2.00;1.90;;;14.80;99.90;;;;;;4995525;28;20539;-65
2023/09/22 05:30:13;;;;;;;3.63;2.27;;;14.80;99.90;;;;;;4995489;28;20451;-65
2023/09/22 05:32:41;;;;;;;3.80;2.43;;;14.80;99.90;;;;;;4994920;28;20472;-64
2023/09/22 05:35:08;;;;;;;2.70;1.77;;;14.80;99.90;;;;;;4995521;28;20457;-64
2023/09/22 05:37:35;;;;;;;3.40;2.20;;;14.80;99.90;;;;;;4995353;28;20490;-64
2023/09/22 05:40:10;;;;;;;2.57;2.37;;;14.80;99.90;;;;;;4995298;28;20528;-64
2023/09/22 05:42:37;;;;;;;2.00;1.90;;;14.80;99.90;;;;;;4994992;28;20550;-64
2023/09/22 05:45:05;;;;;;;2.97;2.10;;;14.80;99.90;;;;;;4995356;28;20574;-64
2023/09/22 05:47:34;;;;;;;2.60;2.30;;;14.80;99.90;;;;;;4995121;28;20457;-64
2023/09/22 05:50:02;;;;;;;2.40;1.90;;;14.80;99.90;;;;;;4995124;28;20458;-64
2023/09/22 05:52:29;;;;;;;2.77;2.13;;;14.80;99.90;;;;;;4994569;28;20525;-65
2023/09/22 05:54:56;;;;;;;2.47;2.00;;;14.90;99.90;;;;;;4995202;28;20458;-65
2023/09/22 05:57:24;;;;;;;3.33;3.03;;;14.90;99.90;;;;;;4995260;28;20552;-65
2023/09/22 05:59:51;;;;;;;2.47;2.13;;;14.80;99.90;;;;;;4995193;28;20492;-64
2023/09/22 06:02:19;;;;;;;3.70;2.97;;;14.80;99.90;;;;;;4994951;28;20838;-64
2023/09/22 06:04:46;;;;;;;2.93;2.70;;;14.80;99.90;;;;;;4994772;28;20493;-64
2023/09/22 06:07:14;;;;;;;2.50;2.30;;;14.90;99.90;;;;;;4995181;28;20543;-65
2023/09/22 06:09:41;;;;;;;3.77;3.20;;;14.90;99.90;;;;;;4994905;28;21062;-65
2023/09/22 06:12:08;;;;;;;3.40;3.10;;;14.90;99.90;;;;;;4994702;28;21062;-64
2023/09/22 06:14:36;;;;;;;3.83;2.60;;;14.90;99.90;;;;;;4994514;28;20458;-64
2023/09/22 06:17:03;;;;;;;2.60;2.40;;;14.90;99.90;;;;;;4994817;28;20480;-65
2023/09/22 06:19:30;;;;;;;5.30;2.13;;;14.90;99.90;;;;;;4994567;28;20452;-64
2023/09/22 06:21:57;;;;;;;2.50;2.30;;;14.90;99.90;;;;;;4994718;28;20468;-65
2023/09/22 06:24:24;;;;;;;2.30;2.10;;;14.90;99.90;;;;;;4994456;28;20491;-65
2023/09/22 06:26:52;;;;;;;2.90;2.70;;;14.90;99.90;;;;;;4994614;28;20452;-65
2023/09/22 06:29:18;;;;;;;2.50;2.40;;;14.80;99.90;;;;;;4994547;28;20561;-64
2023/09/22 06:31:47;;;;;;;2.73;2.57;;;14.80;99.90;;;;;;4994320;28;20472;-65
2023/09/22 06:34:13;;;;;;;3.00;2.80;;;14.80;99.90;;;;;;4993144;28;20446;-65
2023/09/22 06:36:40;;;;;;;3.20;3.00;;;14.90;99.90;;;;;;4994366;28;20943;-64
2023/09/22 06:39:08;;;;;;;3.60;3.30;;;14.90;99.90;;;;;;4992956;28;20466;-66
2023/09/22 06:41:36;;;;;;;4.13;3.10;;;14.90;99.90;;;;;;5002006;28;20912;-65
2023/09/22 06:44:04;;;;;;;3.50;2.90;;;14.90;99.90;;;;;;5004074;28;20495;-65
2023/09/22 06:46:35;;;;;;;6.40;2.80;;;14.90;99.90;;;;;;5005466;28;20478;-64
2023/09/22 06:49:05;;;;;;;3.20;2.93;;;15.00;99.90;;;;;;5013878;28;20537;-65
2023/09/22 06:51:33;;;;;;;2.90;2.70;;;15.00;99.90;;;;;;5013335;28;21023;-65
2023/09/22 06:54:00;;;;;;;3.00;2.67;;;15.00;99.90;;;;;;5013112;28;20949;-65
2023/09/22 06:56:27;;;;;;;3.37;3.07;;;15.00;99.90;;;;;;5013631;28;20895;-64
2023/09/22 06:58:53;;;;;;;3.53;2.70;;;15.00;99.90;;;;;;5013407;28;20449;-65
2023/09/22 07:01:20;;;;;;;3.20;3.00;;;15.00;99.90;;;;;;5013242;28;20554;-64
2023/09/22 07:03:48;;;;;;;3.00;2.80;;;15.00;99.90;;;;;;5012961;28;20494;-64
2023/09/22 07:06:16;;;;;;;5.23;3.70;;;15.00;99.90;;;;;;5013402;28;20832;-64
2023/09/22 07:08:46;;;;;;;2.90;2.73;;;15.00;99.90;;;;;;5013309;28;20544;-64
2023/09/22 07:11:13;;;;;;;3.53;2.73;;;15.10;99.90;;;;;;5013099;28;20888;-64
2023/09/22 07:13:40;;;;;;;2.93;2.73;;;15.20;99.90;;;;;;5012855;28;20525;-64
2023/09/22 07:16:07;;;;;;;3.17;2.90;;;15.20;99.90;;;;;;5013109;28;20455;-64
2023/09/22 07:18:34;;;;;;;3.40;3.10;;;15.20;99.90;;;;;;5013086;28;20538;-65
2023/09/22 07:21:01;;;;;;;4.03;3.37;;;15.20;99.90;;;;;;5013123;28;20537;-64
2023/09/22 07:23:30;;;;;;;4.40;4.10;;;15.30;99.90;;;;;;5012642;28;20537;-64
2023/09/22 07:26:01;;;;;;;3.97;3.67;;;15.30;99.90;;;;;;5012796;28;20448;-65
2023/09/22 07:28:28;;;;;;;3.53;3.27;;;15.30;99.90;;;;;;5012806;28;20455;-64
2023/09/22 07:30:55;;;;;;;4.60;4.20;;;15.30;99.90;;;;;;5012737;28;20546;-64
2023/09/22 07:33:24;;;;;;;4.50;4.10;;;15.40;99.90;;;;;;5012684;28;20978;-64
2023/09/22 07:35:51;;;;;;;3.63;3.17;;;15.40;99.90;;;;;;5012370;28;20457;-65
2023/09/22 07:38:18;;;;;;;5.30;4.13;;;15.50;99.90;;;;;;5002490;28;21103;-64
2023/09/22 07:40:47;;;;;;;4.70;4.13;;;15.50;99.90;;;;;;5012477;28;20998;-64
2023/09/22 07:43:14;;;;;;;5.30;4.07;;;15.60;99.90;;;;;;5012644;28;20534;-64
2023/09/22 07:45:40;;;;;;;3.90;3.50;;;15.60;99.90;;;;;;5012743;28;20493;-65
2023/09/22 07:48:07;;;;;;;3.47;3.17;;;15.60;99.90;;;;;;5012568;28;20449;-64
2023/09/22 07:50:36;;;;;;;4.60;3.70;;;15.70;99.90;;;;;;5012600;28;20511;-65
2023/09/22 07:53:03;;;;;;;3.30;3.00;;;15.70;99.90;;;;;;5012007;28;20534;-64
2023/09/22 07:55:30;;;;;;;4.57;3.80;;;15.80;99.90;;;;;;5012584;28;20451;-65
2023/09/22 07:57:59;;;;;;;5.27;4.80;;;15.80;99.90;;;;;;5012453;28;20459;-65
2023/09/22 08:00:27;;;;;;;5.00;3.53;;;15.90;99.90;;;;;;5012566;28;20826;-64
2023/09/22 08:02:54;;;;;;;3.67;3.37;;;16.00;99.90;;;;;;5012124;28;20484;-65
2023/09/22 08:05:21;;;;;;;3.53;3.20;;;16.10;99.90;;;;;;5012175;28;20580;-65
2023/09/22 08:07:50;;;;;;;3.20;3.00;;;16.20;99.90;;;;;;5012181;28;20493;-65
2023/09/22 08:10:18;;;;;;;9.47;3.10;;;16.20;99.90;;;;;;5012431;28;20456;-65
2023/09/22 08:12:45;;;;;;;2.10;2.00;;;16.30;99.90;;;;;;5011965;28;20890;-65
2023/09/22 08:15:14;;;;;;;2.10;2.00;;;16.30;99.90;;;;;;5012165;28;20540;-64
2023/09/22 08:17:42;;;;;;;1.93;1.83;;;16.30;99.90;;;;;;5012170;28;20452;-65
2023/09/22 08:20:12;;;;;;;2.60;2.37;;;16.30;99.90;;;;;;5012008;28;21032;-64
2023/09/22 08:22:40;;;;;;;2.77;2.57;;;16.30;99.90;;;;;;5011869;28;20480;-64
2023/09/22 08:25:09;;;;;;;2.10;1.90;;;16.40;99.90;;;;;;5012020;28;20561;-65
2023/09/22 08:27:36;;;;;;;3.70;1.60;;;16.40;99.90;;;;;;5011995;28;20972;-64
2023/09/22 08:30:09;;;;;;;3.33;1.40;;;16.40;99.90;;;;;;5011843;28;20453;-64
2023/09/22 08:32:39;;;;;;;1.57;1.47;;;16.40;99.90;;;;;;5011579;28;20475;-64
2023/09/22 08:35:08;;;;;;;1.10;1.10;;;16.50;99.90;;;;;;5011741;28;20479;-65
2023/09/22 08:37:36;;;;;;;2.17;1.57;;;16.50;99.90;;;;;;5011878;28;20812;-64
2023/09/22 08:40:08;;;;;;;1.60;1.50;;;16.50;99.90;;;;;;5011777;28;20459;-65
2023/09/22 08:42:35;;;;;;;1.50;1.40;;;16.60;99.90;;;;;;5011505;28;20472;-65
2023/09/22 08:45:02;;;;;;;1.93;1.33;;;16.60;99.90;;;;;;5011589;28;21006;-64
2023/09/22 08:47:29;;;;;;;1.63;1.17;;;16.60;99.90;;;;;;5011570;28;20842;-65
2023/09/22 08:49:57;;;;;;;2.13;2.00;;;16.60;99.90;;;;;;4997415;28;20534;-65
2023/09/22 08:52:25;;;;;;;1.87;1.30;;;16.70;99.90;;;;;;4971660;28;20478;-65
2023/09/22 08:54:52;;;;;;;1.60;1.50;;;16.70;99.90;;;;;;4972717;28;20541;-64
2023/09/22 08:57:19;;;;;;;1.93;1.67;;;16.70;99.90;;;;;;5000305;28;20482;-64
2023/09/22 08:59:46;;;;;;;1.20;1.10;;;16.70;99.90;;;;;;5010942;28;20453;-65
2023/09/22 09:02:14;;;;;;;1.20;1.10;;;16.70;99.90;;;;;;5008371;28;20484;-65
2023/09/22 09:04:41;;;;;;;1.83;1.47;;;16.70;99.90;;;;;;5002575;28;21005;-64
2023/09/22 09:07:09;;;;;;;1.53;1.30;;;16.60;99.90;;;;;;5011179;28;20452;-65
2023/09/22 09:09:44;;;;;;;2.50;1.17;;;16.60;99.90;;;;;;5010207;28;20822;-64
2023/09/22 09:12:12;;;;;;;1.20;1.20;;;16.60;99.90;;;;;;4991196;28;20856;-65
2023/09/22 09:14:39;;;;;;;1.70;1.40;;;16.60;99.90;;;;;;4990677;28;20503;-65
2023/09/22 09:17:19;;;;;;;1.60;1.50;;;16.60;99.90;;;;;;4991549;28;20527;-65
2023/09/22 09:19:48;;;;;;;1.63;1.33;;;16.70;99.90;;;;;;4991453;28;20462;-65
2023/09/22 09:22:16;;;;;;;1.80;1.60;;;16.70;99.90;;;;;;4999801;28;21343;-65
2023/09/22 09:24:45;;;;;;;2.00;1.87;;;16.70;99.90;;;;;;5010464;28;20488;-64
2023/09/22 09:27:17;;;;;;;4.63;2.47;;;16.70;99.90;;;;;;5010821;28;20518;-65
2023/09/22 09:29:45;;;;;;;3.70;2.30;;;16.70;99.90;;;;;;5011065;28;20451;-65
2023/09/22 09:32:12;;;;;;;2.70;1.97;;;16.70;99.90;;;;;;5010348;28;20474;-64
2023/09/22 09:34:40;;;;;;;2.20;1.30;;;16.70;99.90;;;;;;5010724;28;20507;-64
2023/09/22 09:37:13;;;;;;;1.87;1.27;;;16.60;99.90;;;;;;5010805;28;20525;-65
2023/09/22 09:39:50;;;;;;;2.10;1.90;;;16.60;99.90;;;;;;5010517;28;20463;-64
2023/09/22 09:42:19;;;;;;;1.63;1.10;;;16.50;99.90;;;;;;5000529;28;20990;-64
2023/09/22 09:44:49;;;;;;;2.67;1.57;;;16.50;99.90;;;;;;5010426;28;20492;-65
2023/09/22 09:47:24;;;;;;;1.53;1.40;;;16.40;99.90;;;;;;5010718;28;20510;-64
2023/09/22 09:49:56;;;;;;;1.20;1.07;;;16.40;99.90;;;;;;5010430;28;20458;-64
2023/09/22 09:52:28;;;;;;;1.87;1.03;;;16.40;99.90;;;;;;5009982;28;20471;-65
2023/09/22 09:55:08;;;;;;;1.10;1.00;;;16.40;99.90;;;;;;5010678;28;20451;-65
2023/09/22 09:57:38;;;;;;;1.70;1.60;;;16.40;99.90;;;;;;5010510;28;20456;-64
2023/09/22 10:00:13;;;;;;;1.00;1.00;;;16.40;99.90;;;;;;5010993;28;20818;-65
2023/09/22 10:02:43;;;;;;;1.23;1.13;;;16.40;99.90;;;;;;5010091;28;20476;-65
2023/09/22 10:05:11;;;;;;;2.57;1.17;;;16.50;99.90;;;;;;5010160;28;20493;-65
2023/09/22 10:07:38;;;;;;;2.00;1.80;;;16.50;99.90;;;;;;5010582;28;20896;-64
2023/09/22 10:10:08;;;;;;;2.10;1.80;;;16.50;99.90;;;;;;5012244;28;20448;-64
2023/09/22 10:12:35;;;;;;;1.27;1.17;;;16.60;99.90;;;;;;5013589;28;20464;-65
2023/09/22 10:15:04;;;;;;;1.47;1.37;;;16.70;99.90;;;;;;5013927;28;20528;-64
2023/09/22 10:17:31;;;;;;;1.80;1.20;;;16.70;99.90;;;;;;5014317;28;21029;-65
2023/09/22 10:20:02;;;;;;;1.77;1.00;;;16.80;99.90;;;;;;5013938;28;20454;-65
2023/09/22 10:22:31;;;;;;;1.33;1.23;;;16.80;99.90;;;;;;4992032;28;21227;-65
2023/09/22 10:25:27;;;;;;;1.13;1.03;;;16.90;99.90;;;;;;4974736;28;20576;-66
2023/09/22 10:28:28;;;;;;;2.87;1.73;;;16.90;99.90;;;;;;4977232;28;20540;-66
2023/09/22 10:31:04;;;;;;;3.20;1.53;;;16.90;99.90;;;;;;4915269;29;20631;-65
2023/09/22 10:33:32;;;;;;;1.50;1.30;;;17.00;99.90;;;;;;4899327;29;20448;-66
2023/09/22 10:35:59;;;;;;;1.10;1.00;;;17.00;99.90;;;;;;4906419;29;20442;-65
2023/09/22 10:38:26;;;;;;;4.83;1.30;;;17.00;99.90;;;;;;4907283;29;20818;-65
2023/09/22 10:41:07;;;;;;;2.90;0.97;;;17.00;99.90;;;;;;4897143;29;20739;-65
2023/09/22 10:43:34;;;;;;;0.80;0.80;;;17.00;99.90;;;;;;4899795;29;21024;-65
2023/09/22 10:46:01;;;;;;;1.20;1.10;;;17.10;99.90;;;;;;4906083;29;20504;-64
2023/09/22 10:48:32;;;;;;;1.87;1.20;;;17.00;99.90;;;;;;4967533;23;20510;-63
2023/09/22 10:50:59;;;;;;;1.13;0.73;;;17.00;99.90;;;;;;4998617;28;20928;-63
2023/09/22 10:53:26;;;;;;;0.60;0.60;;;17.00;99.90;;;;;;4984112;28;20446;-63
2023/09/22 10:55:58;;;;;;;1.60;1.10;;;17.00;99.90;;;;;;4985285;28;20445;-63
2023/09/22 10:58:26;;;;;;;0.90;0.80;;;17.10;99.90;;;;;;4985892;28;20832;-63
2023/09/22 11:00:56;;;;;;;1.53;0.77;;;17.10;99.90;;;;;;4978131;28;21035;-63
2023/09/22 11:03:24;;;;;;;1.37;0.90;;;17.10;99.90;;;;;;4989883;28;20532;-63
2023/09/22 11:05:58;;;;;;;1.23;0.87;;;17.10;99.90;;;;;;4978107;28;20488;-63
2023/09/22 11:08:25;;;;;;;1.33;1.10;;;17.20;99.90;;;;;;4981040;28;20478;-63
2023/09/22 11:10:53;;;;;;;0.73;0.73;;;17.20;99.90;;;;;;4973349;28;20795;-63
2023/09/22 11:13:22;;;;;;;1.40;1.30;;;17.20;99.90;;;;;;4989264;28;20446;-64
2023/09/22 11:15:54;;;;;;;0.80;0.80;;;17.20;99.90;;;;;;4980116;28;20442;-64
2023/09/22 11:18:23;;;;;;;1.03;0.90;;;17.30;99.90;;;;;;4981787;28;20899;-64
2023/09/22 11:20:55;;;;;;;0.83;0.83;;;17.40;99.90;;;;;;4987450;28;20450;-63
2023/09/22 11:23:22;;;;;;;0.77;0.77;;;17.40;99.90;;;;;;4976548;28;20458;-64
2023/09/22 11:25:57;;;;;;;0.97;0.80;;;17.50;99.90;;;;;;4981380;28;20577;-63
2023/09/22 11:28:24;;;;;;;0.90;0.90;;;17.50;99.90;;;;;;4971148;28;20874;-64
2023/09/22 11:30:53;;;;;;;2.17;1.20;;;17.50;99.90;;;;;;4972233;28;20543;-64
2023/09/22 11:33:20;;;;;;;1.20;1.00;;;17.60;99.90;;;;;;4972301;28;20459;-63
2023/09/22 11:35:52;;;;;;;1.83;1.00;;;17.60;99.90;;;;;;4974315;28;20460;-63
2023/09/22 11:38:27;;;;;;;1.00;0.80;;;17.60;99.90;;;;;;4971787;28;20569;-63
2023/09/22 11:41:04;;;;;;;0.87;0.50;;;17.60;99.90;;;;;;4973196;28;20443;-63
2023/09/22 11:43:31;;;;;;;0.83;0.53;;;17.70;99.90;;;;;;4973922;28;20453;-63
2023/09/22 11:46:10;;;;;;;0.60;0.60;;;17.90;99.90;;;;;;4972884;28;20585;-64
2023/09/22 11:48:55;;;;;;;1.27;0.50;;;17.90;99.90;;;;;;4974131;28;20489;-64
2023/09/22 11:51:22;;;;;;;0.60;0.50;;;18.00;99.90;;;;;;4974007;28;20459;-63
2023/09/22 11:53:49;;;;;;;0.87;0.70;;;18.10;99.90;;;;;;4974543;28;20537;-64
2023/09/22 11:56:17;;;;;;;2.00;0.70;;;18.10;99.90;;;;;;4972417;28;20447;-63
2023/09/22 11:58:44;;;;;;;0.97;0.67;;;18.10;99.90;;;;;;4972908;28;20510;-63
2023/09/22 12:01:12;;;;;;;0.50;0.50;;;18.20;99.90;;;;;;4974330;28;20527;-64
2023/09/22 12:03:39;;;;;;;0.80;0.80;;;18.40;99.90;;;;;;4964870;28;20828;-63
2023/09/22 12:06:06;;;;;;;0.87;0.73;;;18.40;99.90;;;;;;4971159;28;21114;-63
2023/09/22 12:08:33;;;;;;;0.50;0.50;;;18.50;99.90;;;;;;4973187;28;20519;-64
2023/09/22 12:11:01;;;;;;;0.90;0.77;;;18.70;99.90;;;;;;4973555;28;20454;-64
2023/09/22 12:13:28;;;;;;;1.00;0.77;;;18.70;99.90;;;;;;4969710;28;20458;-64
2023/09/22 12:15:55;;;;;;;1.93;1.07;;;18.60;99.90;;;;;;4973562;28;20443;-64
2023/09/22 12:18:23;;;;;;;0.70;0.70;;;18.50;99.90;;;;;;4969390;28;20500;-64
2023/09/22 12:20:50;;;;;;;0.70;0.70;;;18.50;99.90;;;;;;4970632;28;20534;-64
2023/09/22 12:23:17;;;;;;;0.40;0.40;;;18.40;99.90;;;;;;4971018;28;20475;-64
2023/09/22 12:25:45;;;;;;;0.60;0.60;;;18.30;99.90;;;;;;4972585;28;20982;-64
2023/09/22 12:28:12;;;;;;;0.93;0.50;;;18.20;99.90;;;;;;4972194;28;20501;-64
2023/09/22 12:30:39;;;;;;;0.60;0.60;;;18.10;99.90;;;;;;4966758;28;21007;-64
2023/09/22 12:33:06;;;;;;;0.80;0.70;;;18.10;99.90;;;;;;4967708;28;20490;-63
2023/09/22 12:35:34;;;;;;;0.67;0.50;;;18.10;99.90;;;;;;4974445;28;20464;-64
2023/09/22 12:38:00;;;;;;;1.00;1.00;;;18.10;99.90;;;;;;4974463;28;21095;-63
2023/09/22 12:40:27;;;;;;;0.97;0.80;;;18.10;99.90;;;;;;4971894;28;20539;-66
2023/09/22 12:42:54;;;;;;;1.20;1.10;;;18.10;99.90;;;;;;4970802;28;20538;-64
2023/09/22 12:45:22;;;;;;;1.10;0.70;;;18.20;99.90;;;;;;4973883;28;20542;-63
2023/09/22 12:47:49;;;;;;;1.23;0.70;;;18.30;99.90;;;;;;4971139;28;20490;-64
2023/09/22 12:50:16;;;;;;;1.33;0.90;;;18.30;99.90;;;;;;4972026;28;20828;-64
2023/09/22 12:52:44;;;;;;;0.73;0.73;;;18.40;99.90;;;;;;4970835;28;20455;-63